sensor_id;sensor_type;location;lat;lon;timestamp;P1;durP1;ratioP1;P2;durP2;ratioP2
37451;SDS011;23314;51.114;6.900;2024-02-21T00:00:49;18.33;;;8.90;;
37451;SDS011;23314;51.114;6.900;2024-02-21T00:03:15;23.10;;;10.23;;
37451;SDS011;23314;51.114;6.900;2024-02-21T00:05:40;19.97;;;9.17;;
37451;SDS011;23314;51.114;6.900;2024-02-21T00:08:05;23.00;;;9.43;;
37451;SDS011;23314;51.114;6.900;2024-02-21T00:10:30;19.83;;;8.80;;
37451;SDS011;23314;51.114;6.900;2024-02-21T00:12:57;18.93;;;9.10;;
37451;SDS011;23314;51.114;6.900;2024-02-21T00:15:24;23.53;;;9.07;;
37451;SDS011;23314;51.114;6.900;2024-02-21T00:17:50;18.50;;;9.97;;
37451;SDS011;23314;51.114;6.900;2024-02-21T00:20:15;17.37;;;9.37;;
37451;SDS011;23314;51.114;6.900;2024-02-21T00:22:41;25.63;;;8.90;;
37451;SDS011;23314;51.114;6.900;2024-02-21T00:25:06;21.83;;;8.97;;
37451;SDS011;23314;51.114;6.900;2024-02-21T00:27:32;21.67;;;9.87;;
37451;SDS011;23314;51.114;6.900;2024-02-21T00:29:57;21.13;;;9.87;;
37451;SDS011;23314;51.114;6.900;2024-02-21T00:32:22;16.83;;;8.53;;
37451;SDS011;23314;51.114;6.900;2024-02-21T00:34:48;22.73;;;9.53;;
37451;SDS011;23314;51.114;6.900;2024-02-21T00:37:13;20.73;;;8.50;;
37451;SDS011;23314;51.114;6.900;2024-02-21T00:39:38;17.20;;;8.13;;
37451;SDS011;23314;51.114;6.900;2024-02-21T00:42:04;20.00;;;8.90;;
37451;SDS011;23314;51.114;6.900;2024-02-21T00:44:29;18.93;;;9.40;;
37451;SDS011;23314;51.114;6.900;2024-02-21T00:46:55;23.10;;;9.57;;
37451;SDS011;23314;51.114;6.900;2024-02-21T00:49:20;24.73;;;9.53;;
37451;SDS011;23314;51.114;6.900;2024-02-21T00:51:46;21.90;;;8.80;;
37451;SDS011;23314;51.114;6.900;2024-02-21T00:54:12;23.20;;;9.10;;
37451;SDS011;23314;51.114;6.900;2024-02-21T00:56:37;18.10;;;8.90;;
37451;SDS011;23314;51.114;6.900;2024-02-21T00:59:02;20.80;;;9.33;;
37451;SDS011;23314;51.114;6.900;2024-02-21T01:01:28;22.53;;;9.53;;
37451;SDS011;23314;51.114;6.900;2024-02-21T01:03:53;19.47;;;9.27;;
37451;SDS011;23314;51.114;6.900;2024-02-21T01:06:19;22.40;;;9.67;;
37451;SDS011;23314;51.114;6.900;2024-02-21T01:08:46;25.87;;;9.33;;
37451;SDS011;23314;51.114;6.900;2024-02-21T01:11:14;20.17;;;9.47;;
37451;SDS011;23314;51.114;6.900;2024-02-21T01:13:40;23.63;;;9.30;;
37451;SDS011;23314;51.114;6.900;2024-02-21T01:16:05;23.27;;;9.73;;
37451;SDS011;23314;51.114;6.900;2024-02-21T01:18:34;20.10;;;9.73;;
37451;SDS011;23314;51.114;6.900;2024-02-21T01:21:00;22.60;;;9.50;;
37451;SDS011;23314;51.114;6.900;2024-02-21T01:23:25;18.67;;;8.70;;
37451;SDS011;23314;51.114;6.900;2024-02-21T01:25:51;21.23;;;9.30;;
37451;SDS011;23314;51.114;6.900;2024-02-21T01:28:16;18.87;;;9.80;;
37451;SDS011;23314;51.114;6.900;2024-02-21T01:30:42;25.20;;;9.80;;
37451;SDS011;23314;51.114;6.900;2024-02-21T01:33:07;20.83;;;9.50;;
37451;SDS011;23314;51.114;6.900;2024-02-21T01:35:34;22.37;;;9.53;;
37451;SDS011;23314;51.114;6.900;2024-02-21T01:37:59;20.07;;;9.20;;
37451;SDS011;23314;51.114;6.900;2024-02-21T01:40:24;20.63;;;8.17;;
37451;SDS011;23314;51.114;6.900;2024-02-21T01:42:50;28.93;;;9.60;;
37451;SDS011;23314;51.114;6.900;2024-02-21T01:45:15;21.27;;;9.13;;
37451;SDS011;23314;51.114;6.900;2024-02-21T01:47:40;15.60;;;8.83;;
37451;SDS011;23314;51.114;6.900;2024-02-21T01:50:06;24.40;;;9.80;;
37451;SDS011;23314;51.114;6.900;2024-02-21T01:52:32;23.77;;;9.87;;
37451;SDS011;23314;51.114;6.900;2024-02-21T01:54:59;19.87;;;9.53;;
37451;SDS011;23314;51.114;6.900;2024-02-21T01:57:25;24.57;;;9.87;;
37451;SDS011;23314;51.114;6.900;2024-02-21T01:59:50;21.63;;;9.30;;
37451;SDS011;23314;51.114;6.900;2024-02-21T02:02:16;23.13;;;9.57;;
37451;SDS011;23314;51.114;6.900;2024-02-21T02:04:42;24.60;;;10.07;;
37451;SDS011;23314;51.114;6.900;2024-02-21T02:07:10;21.70;;;9.57;;
37451;SDS011;23314;51.114;6.900;2024-02-21T02:09:35;20.20;;;9.00;;
37451;SDS011;23314;51.114;6.900;2024-02-21T02:12:01;23.53;;;9.90;;
37451;SDS011;23314;51.114;6.900;2024-02-21T02:14:27;20.27;;;9.60;;
37451;SDS011;23314;51.114;6.900;2024-02-21T02:16:52;21.77;;;9.33;;
37451;SDS011;23314;51.114;6.900;2024-02-21T02:19:17;19.33;;;9.67;;
37451;SDS011;23314;51.114;6.900;2024-02-21T02:21:46;22.80;;;10.17;;
37451;SDS011;23314;51.114;6.900;2024-02-21T02:24:18;24.50;;;8.80;;
37451;SDS011;23314;51.114;6.900;2024-02-21T02:26:44;20.73;;;9.20;;
37451;SDS011;23314;51.114;6.900;2024-02-21T02:29:10;18.80;;;9.00;;
37451;SDS011;23314;51.114;6.900;2024-02-21T02:31:36;23.27;;;9.77;;
37451;SDS011;23314;51.114;6.900;2024-02-21T02:34:02;22.13;;;10.17;;
37451;SDS011;23314;51.114;6.900;2024-02-21T02:36:28;17.93;;;9.50;;
37451;SDS011;23314;51.114;6.900;2024-02-21T02:38:53;19.73;;;9.47;;
37451;SDS011;23314;51.114;6.900;2024-02-21T02:41:18;19.33;;;9.07;;
37451;SDS011;23314;51.114;6.900;2024-02-21T02:43:43;22.70;;;8.93;;
37451;SDS011;23314;51.114;6.900;2024-02-21T02:46:09;23.43;;;9.00;;
37451;SDS011;23314;51.114;6.900;2024-02-21T02:48:34;18.87;;;8.83;;
37451;SDS011;23314;51.114;6.900;2024-02-21T02:50:59;18.17;;;8.67;;
37451;SDS011;23314;51.114;6.900;2024-02-21T02:53:25;20.70;;;8.63;;
37451;SDS011;23314;51.114;6.900;2024-02-21T02:55:50;22.77;;;8.87;;
37451;SDS011;23314;51.114;6.900;2024-02-21T02:58:15;17.63;;;9.20;;
37451;SDS011;23314;51.114;6.900;2024-02-21T03:00:41;15.77;;;8.77;;
37451;SDS011;23314;51.114;6.900;2024-02-21T03:03:06;21.67;;;9.60;;
37451;SDS011;23314;51.114;6.900;2024-02-21T03:05:33;20.33;;;9.47;;
37451;SDS011;23314;51.114;6.900;2024-02-21T03:07:58;21.87;;;9.27;;
37451;SDS011;23314;51.114;6.900;2024-02-21T03:10:24;24.57;;;9.80;;
37451;SDS011;23314;51.114;6.900;2024-02-21T03:12:49;19.77;;;9.10;;
37451;SDS011;23314;51.114;6.900;2024-02-21T03:15:17;21.23;;;9.83;;
37451;SDS011;23314;51.114;6.900;2024-02-21T03:17:43;20.30;;;9.33;;
37451;SDS011;23314;51.114;6.900;2024-02-21T03:20:08;21.03;;;8.80;;
37451;SDS011;23314;51.114;6.900;2024-02-21T03:22:34;21.37;;;8.83;;
37451;SDS011;23314;51.114;6.900;2024-02-21T03:25:00;21.37;;;9.03;;
37451;SDS011;23314;51.114;6.900;2024-02-21T03:27:26;18.17;;;8.10;;
37451;SDS011;23314;51.114;6.900;2024-02-21T03:29:51;22.87;;;8.73;;
37451;SDS011;23314;51.114;6.900;2024-02-21T03:32:17;19.73;;;9.30;;
37451;SDS011;23314;51.114;6.900;2024-02-21T03:34:42;20.03;;;8.00;;
37451;SDS011;23314;51.114;6.900;2024-02-21T03:37:07;20.63;;;8.30;;
37451;SDS011;23314;51.114;6.900;2024-02-21T03:39:32;20.23;;;8.97;;
37451;SDS011;23314;51.114;6.900;2024-02-21T03:41:58;14.00;;;7.60;;
37451;SDS011;23314;51.114;6.900;2024-02-21T03:44:26;18.10;;;7.90;;
37451;SDS011;23314;51.114;6.900;2024-02-21T03:46:52;20.07;;;8.10;;
37451;SDS011;23314;51.114;6.900;2024-02-21T03:49:17;19.73;;;7.97;;
37451;SDS011;23314;51.114;6.900;2024-02-21T03:51:43;18.40;;;8.37;;
37451;SDS011;23314;51.114;6.900;2024-02-21T03:54:08;18.77;;;7.80;;
37451;SDS011;23314;51.114;6.900;2024-02-21T03:56:36;19.47;;;8.60;;
37451;SDS011;23314;51.114;6.900;2024-02-21T03:59:02;17.90;;;7.17;;
37451;SDS011;23314;51.114;6.900;2024-02-21T04:01:28;20.37;;;8.43;;
37451;SDS011;23314;51.114;6.900;2024-02-21T04:03:53;15.27;;;6.97;;
37451;SDS011;23314;51.114;6.900;2024-02-21T04:06:19;15.80;;;6.70;;
37451;SDS011;23314;51.114;6.900;2024-02-21T04:08:45;21.40;;;7.37;;
37451;SDS011;23314;51.114;6.900;2024-02-21T04:11:10;19.37;;;7.10;;
37451;SDS011;23314;51.114;6.900;2024-02-21T04:13:35;14.60;;;6.70;;
37451;SDS011;23314;51.114;6.900;2024-02-21T04:16:00;15.23;;;7.60;;
37451;SDS011;23314;51.114;6.900;2024-02-21T04:18:26;18.63;;;7.27;;
37451;SDS011;23314;51.114;6.900;2024-02-21T04:20:51;16.83;;;6.60;;
37451;SDS011;23314;51.114;6.900;2024-02-21T04:23:17;15.80;;;7.30;;
37451;SDS011;23314;51.114;6.900;2024-02-21T04:25:42;16.30;;;7.37;;
37451;SDS011;23314;51.114;6.900;2024-02-21T04:28:07;15.43;;;6.60;;
37451;SDS011;23314;51.114;6.900;2024-02-21T04:30:33;14.10;;;6.17;;
37451;SDS011;23314;51.114;6.900;2024-02-21T04:32:58;15.67;;;6.83;;
37451;SDS011;23314;51.114;6.900;2024-02-21T04:35:23;16.80;;;6.90;;
37451;SDS011;23314;51.114;6.900;2024-02-21T04:37:49;14.33;;;6.60;;
37451;SDS011;23314;51.114;6.900;2024-02-21T04:40:14;11.93;;;6.33;;
37451;SDS011;23314;51.114;6.900;2024-02-21T04:42:41;20.53;;;6.53;;
37451;SDS011;23314;51.114;6.900;2024-02-21T04:45:07;15.70;;;6.73;;
37451;SDS011;23314;51.114;6.900;2024-02-21T04:47:32;17.30;;;7.53;;
37451;SDS011;23314;51.114;6.900;2024-02-21T04:49:58;14.07;;;6.73;;
37451;SDS011;23314;51.114;6.900;2024-02-21T04:52:23;12.57;;;6.30;;
37451;SDS011;23314;51.114;6.900;2024-02-21T04:54:49;12.33;;;6.00;;
37451;SDS011;23314;51.114;6.900;2024-02-21T04:57:15;13.17;;;6.67;;
37451;SDS011;23314;51.114;6.900;2024-02-21T04:59:44;16.07;;;6.93;;
37451;SDS011;23314;51.114;6.900;2024-02-21T05:02:11;12.50;;;6.07;;
37451;SDS011;23314;51.114;6.900;2024-02-21T05:04:36;15.10;;;6.13;;
37451;SDS011;23314;51.114;6.900;2024-02-21T05:07:03;15.93;;;7.00;;
37451;SDS011;23314;51.114;6.900;2024-02-21T05:09:29;12.57;;;5.80;;
37451;SDS011;23314;51.114;6.900;2024-02-21T05:11:54;16.13;;;6.73;;
37451;SDS011;23314;51.114;6.900;2024-02-21T05:14:19;10.13;;;5.97;;
37451;SDS011;23314;51.114;6.900;2024-02-21T05:16:45;13.97;;;6.53;;
37451;SDS011;23314;51.114;6.900;2024-02-21T05:19:10;13.13;;;6.10;;
37451;SDS011;23314;51.114;6.900;2024-02-21T05:21:35;11.63;;;6.20;;
37451;SDS011;23314;51.114;6.900;2024-02-21T05:24:01;14.53;;;7.67;;
37451;SDS011;23314;51.114;6.900;2024-02-21T05:26:26;11.33;;;5.40;;
37451;SDS011;23314;51.114;6.900;2024-02-21T05:28:52;13.10;;;6.23;;
37451;SDS011;23314;51.114;6.900;2024-02-21T05:31:18;15.53;;;6.30;;
37451;SDS011;23314;51.114;6.900;2024-02-21T05:33:44;15.53;;;6.40;;
37451;SDS011;23314;51.114;6.900;2024-02-21T05:36:10;13.00;;;6.43;;
37451;SDS011;23314;51.114;6.900;2024-02-21T05:38:35;15.33;;;6.13;;
37451;SDS011;23314;51.114;6.900;2024-02-21T05:41:01;8.97;;;5.80;;
37451;SDS011;23314;51.114;6.900;2024-02-21T05:43:26;13.90;;;5.63;;
37451;SDS011;23314;51.114;6.900;2024-02-21T05:45:53;12.77;;;5.90;;
37451;SDS011;23314;51.114;6.900;2024-02-21T05:48:18;12.70;;;5.93;;
37451;SDS011;23314;51.114;6.900;2024-02-21T05:50:43;11.40;;;5.97;;
37451;SDS011;23314;51.114;6.900;2024-02-21T05:53:09;18.63;;;6.03;;
37451;SDS011;23314;51.114;6.900;2024-02-21T05:55:35;13.53;;;5.67;;
37451;SDS011;23314;51.114;6.900;2024-02-21T05:58:01;15.10;;;5.97;;
37451;SDS011;23314;51.114;6.900;2024-02-21T06:00:27;16.40;;;6.23;;
37451;SDS011;23314;51.114;6.900;2024-02-21T06:02:52;17.33;;;6.33;;
37451;SDS011;23314;51.114;6.900;2024-02-21T06:05:18;15.77;;;6.03;;
37451;SDS011;23314;51.114;6.900;2024-02-21T06:07:43;12.70;;;5.50;;
37451;SDS011;23314;51.114;6.900;2024-02-21T06:10:08;13.83;;;5.73;;
37451;SDS011;23314;51.114;6.900;2024-02-21T06:12:34;13.77;;;6.00;;
37451;SDS011;23314;51.114;6.900;2024-02-21T06:14:59;14.07;;;5.57;;
37451;SDS011;23314;51.114;6.900;2024-02-21T06:17:25;15.53;;;6.03;;
37451;SDS011;23314;51.114;6.900;2024-02-21T06:19:50;13.77;;;5.40;;
37451;SDS011;23314;51.114;6.900;2024-02-21T06:22:15;14.87;;;5.97;;
37451;SDS011;23314;51.114;6.900;2024-02-21T06:24:40;12.30;;;5.70;;
37451;SDS011;23314;51.114;6.900;2024-02-21T06:27:06;15.50;;;6.03;;
37451;SDS011;23314;51.114;6.900;2024-02-21T06:29:31;12.17;;;6.00;;
37451;SDS011;23314;51.114;6.900;2024-02-21T06:31:57;16.90;;;5.70;;
37451;SDS011;23314;51.114;6.900;2024-02-21T06:34:23;17.23;;;6.40;;
37451;SDS011;23314;51.114;6.900;2024-02-21T06:36:49;15.67;;;6.27;;
37451;SDS011;23314;51.114;6.900;2024-02-21T06:39:15;13.70;;;6.17;;
37451;SDS011;23314;51.114;6.900;2024-02-21T06:41:40;13.83;;;5.93;;
37451;SDS011;23314;51.114;6.900;2024-02-21T06:44:06;13.63;;;6.20;;
37451;SDS011;23314;51.114;6.900;2024-02-21T06:46:31;9.23;;;5.00;;
37451;SDS011;23314;51.114;6.900;2024-02-21T06:48:58;13.00;;;5.07;;
37451;SDS011;23314;51.114;6.900;2024-02-21T06:51:25;9.80;;;5.07;;
37451;SDS011;23314;51.114;6.900;2024-02-21T06:53:50;10.93;;;4.93;;
37451;SDS011;23314;51.114;6.900;2024-02-21T06:56:15;9.60;;;4.20;;
37451;SDS011;23314;51.114;6.900;2024-02-21T06:58:41;9.50;;;4.20;;
37451;SDS011;23314;51.114;6.900;2024-02-21T07:01:06;9.63;;;4.17;;
37451;SDS011;23314;51.114;6.900;2024-02-21T07:03:32;7.33;;;3.80;;
37451;SDS011;23314;51.114;6.900;2024-02-21T07:05:57;8.77;;;3.80;;
37451;SDS011;23314;51.114;6.900;2024-02-21T07:08:23;10.97;;;4.10;;
37451;SDS011;23314;51.114;6.900;2024-02-21T07:10:48;9.30;;;4.27;;
37451;SDS011;23314;51.114;6.900;2024-02-21T07:13:14;12.03;;;4.20;;
37451;SDS011;23314;51.114;6.900;2024-02-21T07:15:40;11.00;;;4.37;;
37451;SDS011;23314;51.114;6.900;2024-02-21T07:18:06;10.30;;;4.47;;
37451;SDS011;23314;51.114;6.900;2024-02-21T07:20:31;9.23;;;4.20;;
37451;SDS011;23314;51.114;6.900;2024-02-21T07:22:58;7.50;;;3.93;;
37451;SDS011;23314;51.114;6.900;2024-02-21T07:25:24;7.37;;;4.23;;
37451;SDS011;23314;51.114;6.900;2024-02-21T07:27:49;10.30;;;4.43;;
37451;SDS011;23314;51.114;6.900;2024-02-21T07:30:15;14.57;;;4.90;;
37451;SDS011;23314;51.114;6.900;2024-02-21T07:32:41;11.93;;;4.70;;
37451;SDS011;23314;51.114;6.900;2024-02-21T07:35:06;12.70;;;4.77;;
37451;SDS011;23314;51.114;6.900;2024-02-21T07:37:36;8.47;;;3.73;;
37451;SDS011;23314;51.114;6.900;2024-02-21T07:40:01;13.63;;;4.77;;
37451;SDS011;23314;51.114;6.900;2024-02-21T07:42:27;12.30;;;4.53;;
37451;SDS011;23314;51.114;6.900;2024-02-21T07:44:53;12.00;;;5.17;;
37451;SDS011;23314;51.114;6.900;2024-02-21T07:47:18;11.20;;;4.27;;
37451;SDS011;23314;51.114;6.900;2024-02-21T07:49:44;11.37;;;4.57;;
37451;SDS011;23314;51.114;6.900;2024-02-21T07:52:10;13.63;;;5.07;;
37451;SDS011;23314;51.114;6.900;2024-02-21T07:54:35;20.10;;;5.40;;
37451;SDS011;23314;51.114;6.900;2024-02-21T07:57:00;10.87;;;4.73;;
37451;SDS011;23314;51.114;6.900;2024-02-21T07:59:26;10.73;;;5.30;;
37451;SDS011;23314;51.114;6.900;2024-02-21T08:01:51;16.83;;;5.87;;
37451;SDS011;23314;51.114;6.900;2024-02-21T08:04:16;10.90;;;6.23;;
37451;SDS011;23314;51.114;6.900;2024-02-21T08:06:42;12.23;;;5.90;;
37451;SDS011;23314;51.114;6.900;2024-02-21T08:09:08;11.57;;;5.70;;
37451;SDS011;23314;51.114;6.900;2024-02-21T08:11:33;17.33;;;6.50;;
37451;SDS011;23314;51.114;6.900;2024-02-21T08:13:59;13.07;;;5.70;;
37451;SDS011;23314;51.114;6.900;2024-02-21T08:16:24;15.17;;;6.20;;
37451;SDS011;23314;51.114;6.900;2024-02-21T08:18:49;17.07;;;6.27;;
37451;SDS011;23314;51.114;6.900;2024-02-21T08:21:15;14.60;;;6.57;;
37451;SDS011;23314;51.114;6.900;2024-02-21T08:23:40;15.53;;;6.93;;
37451;SDS011;23314;51.114;6.900;2024-02-21T08:26:06;14.83;;;5.87;;
37451;SDS011;23314;51.114;6.900;2024-02-21T08:28:31;16.53;;;6.50;;
37451;SDS011;23314;51.114;6.900;2024-02-21T08:30:56;12.83;;;5.70;;
37451;SDS011;23314;51.114;6.900;2024-02-21T08:33:21;12.07;;;5.83;;
37451;SDS011;23314;51.114;6.900;2024-02-21T08:35:50;12.83;;;6.33;;
37451;SDS011;23314;51.114;6.900;2024-02-21T08:38:16;15.70;;;6.60;;
37451;SDS011;23314;51.114;6.900;2024-02-21T08:40:42;17.60;;;6.50;;
37451;SDS011;23314;51.114;6.900;2024-02-21T08:43:07;14.63;;;6.23;;
37451;SDS011;23314;51.114;6.900;2024-02-21T08:45:32;13.03;;;6.13;;
37451;SDS011;23314;51.114;6.900;2024-02-21T08:47:57;14.80;;;6.10;;
37451;SDS011;23314;51.114;6.900;2024-02-21T08:50:23;17.20;;;5.97;;
37451;SDS011;23314;51.114;6.900;2024-02-21T08:52:48;14.60;;;6.60;;
37451;SDS011;23314;51.114;6.900;2024-02-21T08:55:13;9.90;;;5.43;;
37451;SDS011;23314;51.114;6.900;2024-02-21T08:57:39;13.60;;;5.50;;
37451;SDS011;23314;51.114;6.900;2024-02-21T09:00:04;14.13;;;5.90;;
37451;SDS011;23314;51.114;6.900;2024-02-21T09:02:43;19.60;;;5.53;;
37451;SDS011;23314;51.114;6.900;2024-02-21T09:05:09;11.20;;;5.37;;
37451;SDS011;23314;51.114;6.900;2024-02-21T09:07:34;8.83;;;4.80;;
37451;SDS011;23314;51.114;6.900;2024-02-21T09:09:59;11.27;;;5.53;;
37451;SDS011;23314;51.114;6.900;2024-02-21T09:12:25;13.20;;;5.10;;
37451;SDS011;23314;51.114;6.900;2024-02-21T09:14:51;10.63;;;4.57;;
37451;SDS011;23314;51.114;6.900;2024-02-21T09:17:16;14.90;;;5.93;;
37451;SDS011;23314;51.114;6.900;2024-02-21T09:19:50;11.53;;;4.93;;
37451;SDS011;23314;51.114;6.900;2024-02-21T09:22:15;10.67;;;5.33;;
37451;SDS011;23314;51.114;6.900;2024-02-21T09:24:40;9.73;;;4.50;;
37451;SDS011;23314;51.114;6.900;2024-02-21T09:27:06;14.07;;;5.93;;
37451;SDS011;23314;51.114;6.900;2024-02-21T09:29:31;9.10;;;5.10;;
37451;SDS011;23314;51.114;6.900;2024-02-21T09:31:58;13.73;;;5.23;;
37451;SDS011;23314;51.114;6.900;2024-02-21T09:34:24;11.43;;;5.23;;
37451;SDS011;23314;51.114;6.900;2024-02-21T09:36:49;8.60;;;4.67;;
37451;SDS011;23314;51.114;6.900;2024-02-21T09:39:15;12.50;;;5.27;;
37451;SDS011;23314;51.114;6.900;2024-02-21T09:41:45;12.73;;;4.83;;
37451;SDS011;23314;51.114;6.900;2024-02-21T09:44:13;9.13;;;4.90;;
37451;SDS011;23314;51.114;6.900;2024-02-21T09:46:46;25.17;;;5.67;;
37451;SDS011;23314;51.114;6.900;2024-02-21T09:49:33;10.93;;;4.90;;
37451;SDS011;23314;51.114;6.900;2024-02-21T09:52:01;9.53;;;4.60;;
37451;SDS011;23314;51.114;6.900;2024-02-21T09:54:28;10.07;;;4.53;;
37451;SDS011;23314;51.114;6.900;2024-02-21T09:56:55;11.53;;;4.70;;
37451;SDS011;23314;51.114;6.900;2024-02-21T09:59:20;11.37;;;5.43;;
37451;SDS011;23314;51.114;6.900;2024-02-21T10:01:47;10.60;;;4.53;;
37451;SDS011;23314;51.114;6.900;2024-02-21T10:04:12;14.60;;;4.80;;
37451;SDS011;23314;51.114;6.900;2024-02-21T10:06:37;12.67;;;5.43;;
37451;SDS011;23314;51.114;6.900;2024-02-21T10:09:05;11.17;;;4.87;;
37451;SDS011;23314;51.114;6.900;2024-02-21T10:11:31;10.93;;;4.60;;
37451;SDS011;23314;51.114;6.900;2024-02-21T10:14:06;9.97;;;4.27;;
37451;SDS011;23314;51.114;6.900;2024-02-21T10:16:32;8.20;;;4.23;;
37451;SDS011;23314;51.114;6.900;2024-02-21T10:18:58;10.23;;;4.40;;
37451;SDS011;23314;51.114;6.900;2024-02-21T10:21:24;7.43;;;3.80;;
37451;SDS011;23314;51.114;6.900;2024-02-21T10:23:49;8.40;;;4.10;;
37451;SDS011;23314;51.114;6.900;2024-02-21T10:26:16;13.47;;;4.83;;
37451;SDS011;23314;51.114;6.900;2024-02-21T10:28:42;7.90;;;3.83;;
37451;SDS011;23314;51.114;6.900;2024-02-21T10:31:10;7.17;;;3.70;;
37451;SDS011;23314;51.114;6.900;2024-02-21T10:33:36;8.97;;;4.13;;
37451;SDS011;23314;51.114;6.900;2024-02-21T10:36:09;6.43;;;3.77;;
37451;SDS011;23314;51.114;6.900;2024-02-21T10:38:38;7.43;;;3.83;;
37451;SDS011;23314;51.114;6.900;2024-02-21T10:41:04;9.67;;;3.80;;
37451;SDS011;23314;51.114;6.900;2024-02-21T10:43:33;6.13;;;3.50;;
37451;SDS011;23314;51.114;6.900;2024-02-21T10:46:05;9.93;;;4.20;;
37451;SDS011;23314;51.114;6.900;2024-02-21T10:48:44;7.80;;;3.67;;
37451;SDS011;23314;51.114;6.900;2024-02-21T10:51:17;8.30;;;3.83;;
37451;SDS011;23314;51.114;6.900;2024-02-21T10:54:47;7.23;;;4.07;;
37451;SDS011;23314;51.114;6.900;2024-02-21T10:56:42;10.73;;;3.93;;
37451;SDS011;23314;51.114;6.900;2024-02-21T10:59:08;14.80;;;4.00;;
37451;SDS011;23314;51.114;6.900;2024-02-21T11:01:34;11.37;;;4.40;;
37451;SDS011;23314;51.114;6.900;2024-02-21T11:04:02;9.43;;;4.03;;
37451;SDS011;23314;51.114;6.900;2024-02-21T11:06:33;7.83;;;3.60;;
37451;SDS011;23314;51.114;6.900;2024-02-21T11:09:05;9.47;;;4.33;;
37451;SDS011;23314;51.114;6.900;2024-02-21T11:11:35;8.93;;;4.37;;
37451;SDS011;23314;51.114;6.900;2024-02-21T11:14:09;10.97;;;4.33;;
37451;SDS011;23314;51.114;6.900;2024-02-21T11:16:36;8.07;;;3.43;;
37451;SDS011;23314;51.114;6.900;2024-02-21T11:19:10;9.27;;;4.10;;
37451;SDS011;23314;51.114;6.900;2024-02-21T11:21:56;12.47;;;3.53;;
37451;SDS011;23314;51.114;6.900;2024-02-21T11:24:25;9.07;;;3.40;;
37451;SDS011;23314;51.114;6.900;2024-02-21T11:26:54;10.93;;;3.77;;
37451;SDS011;23314;51.114;6.900;2024-02-21T11:29:24;9.97;;;3.90;;
37451;SDS011;23314;51.114;6.900;2024-02-21T11:31:51;8.97;;;3.30;;
37451;SDS011;23314;51.114;6.900;2024-02-21T11:34:17;12.47;;;4.77;;
37451;SDS011;23314;51.114;6.900;2024-02-21T11:36:50;7.23;;;3.13;;
37451;SDS011;23314;51.114;6.900;2024-02-21T11:41:47;9.53;;;3.83;;
37451;SDS011;23314;51.114;6.900;2024-02-21T11:44:13;10.80;;;3.70;;
37451;SDS011;23314;51.114;6.900;2024-02-21T11:46:38;7.73;;;3.80;;
37451;SDS011;23314;51.114;6.900;2024-02-21T11:49:04;12.43;;;3.87;;
37451;SDS011;23314;51.114;6.900;2024-02-21T11:51:29;10.87;;;3.53;;
37451;SDS011;23314;51.114;6.900;2024-02-21T11:53:54;10.00;;;3.87;;
37451;SDS011;23314;51.114;6.900;2024-02-21T11:56:20;10.37;;;3.50;;
37451;SDS011;23314;51.114;6.900;2024-02-21T11:58:46;8.40;;;2.87;;
37451;SDS011;23314;51.114;6.900;2024-02-21T12:01:12;6.20;;;3.43;;
37451;SDS011;23314;51.114;6.900;2024-02-21T12:03:38;8.17;;;3.50;;
37451;SDS011;23314;51.114;6.900;2024-02-21T12:06:06;8.57;;;3.60;;
37451;SDS011;23314;51.114;6.900;2024-02-21T12:08:41;10.73;;;3.50;;
37451;SDS011;23314;51.114;6.900;2024-02-21T12:11:18;8.00;;;3.30;;
37451;SDS011;23314;51.114;6.900;2024-02-21T12:13:44;7.40;;;3.43;;
37451;SDS011;23314;51.114;6.900;2024-02-21T12:16:10;12.40;;;3.27;;
37451;SDS011;23314;51.114;6.900;2024-02-21T12:18:36;10.23;;;3.83;;
37451;SDS011;23314;51.114;6.900;2024-02-21T12:21:01;6.60;;;3.27;;
37451;SDS011;23314;51.114;6.900;2024-02-21T12:23:26;8.23;;;3.40;;
37451;SDS011;23314;51.114;6.900;2024-02-21T12:25:52;8.53;;;3.53;;
37451;SDS011;23314;51.114;6.900;2024-02-21T12:28:21;8.10;;;2.93;;
37451;SDS011;23314;51.114;6.900;2024-02-21T12:30:47;10.03;;;2.90;;
37451;SDS011;23314;51.114;6.900;2024-02-21T12:33:12;8.27;;;4.10;;
37451;SDS011;23314;51.114;6.900;2024-02-21T12:35:39;5.70;;;3.20;;
37451;SDS011;23314;51.114;6.900;2024-02-21T12:38:04;9.23;;;3.40;;
37451;SDS011;23314;51.114;6.900;2024-02-21T12:40:30;5.90;;;3.07;;
37451;SDS011;23314;51.114;6.900;2024-02-21T12:42:58;8.63;;;3.60;;
37451;SDS011;23314;51.114;6.900;2024-02-21T12:45:25;10.77;;;3.23;;
37451;SDS011;23314;51.114;6.900;2024-02-21T12:47:51;7.43;;;3.00;;
37451;SDS011;23314;51.114;6.900;2024-02-21T12:50:16;8.83;;;3.63;;
37451;SDS011;23314;51.114;6.900;2024-02-21T12:52:42;9.93;;;3.13;;
37451;SDS011;23314;51.114;6.900;2024-02-21T12:55:07;7.17;;;3.30;;
37451;SDS011;23314;51.114;6.900;2024-02-21T12:57:35;8.40;;;3.10;;
37451;SDS011;23314;51.114;6.900;2024-02-21T13:00:02;5.80;;;2.90;;
37451;SDS011;23314;51.114;6.900;2024-02-21T13:02:28;10.53;;;2.97;;
37451;SDS011;23314;51.114;6.900;2024-02-21T13:04:54;9.33;;;3.33;;
37451;SDS011;23314;51.114;6.900;2024-02-21T13:07:19;10.97;;;3.27;;
37451;SDS011;23314;51.114;6.900;2024-02-21T13:09:44;7.73;;;3.33;;
37451;SDS011;23314;51.114;6.900;2024-02-21T13:12:10;8.83;;;3.57;;
37451;SDS011;23314;51.114;6.900;2024-02-21T13:14:35;9.37;;;3.13;;
37451;SDS011;23314;51.114;6.900;2024-02-21T13:17:03;7.43;;;2.83;;
37451;SDS011;23314;51.114;6.900;2024-02-21T13:19:28;8.33;;;3.40;;
37451;SDS011;23314;51.114;6.900;2024-02-21T13:21:53;7.80;;;3.03;;
37451;SDS011;23314;51.114;6.900;2024-02-21T13:24:19;5.93;;;2.93;;
37451;SDS011;23314;51.114;6.900;2024-02-21T13:26:44;8.13;;;3.17;;
37451;SDS011;23314;51.114;6.900;2024-02-21T13:29:09;10.57;;;3.57;;
37451;SDS011;23314;51.114;6.900;2024-02-21T13:31:35;7.23;;;3.10;;
37451;SDS011;23314;51.114;6.900;2024-02-21T13:34:00;9.33;;;3.80;;
37451;SDS011;23314;51.114;6.900;2024-02-21T13:36:25;7.63;;;3.40;;
37451;SDS011;23314;51.114;6.900;2024-02-21T13:38:51;8.50;;;3.23;;
37451;SDS011;23314;51.114;6.900;2024-02-21T13:41:17;10.27;;;3.20;;
37451;SDS011;23314;51.114;6.900;2024-02-21T13:43:43;9.60;;;2.97;;
37451;SDS011;23314;51.114;6.900;2024-02-21T13:46:08;7.30;;;3.20;;
37451;SDS011;23314;51.114;6.900;2024-02-21T13:48:36;7.50;;;3.40;;
37451;SDS011;23314;51.114;6.900;2024-02-21T13:51:01;7.90;;;3.00;;
37451;SDS011;23314;51.114;6.900;2024-02-21T13:53:30;8.50;;;3.33;;
37451;SDS011;23314;51.114;6.900;2024-02-21T13:55:55;8.07;;;2.70;;
37451;SDS011;23314;51.114;6.900;2024-02-21T13:58:20;8.43;;;3.27;;
37451;SDS011;23314;51.114;6.900;2024-02-21T14:00:46;15.10;;;3.20;;
37451;SDS011;23314;51.114;6.900;2024-02-21T14:03:11;9.33;;;3.17;;
37451;SDS011;23314;51.114;6.900;2024-02-21T14:05:36;10.90;;;3.27;;
37451;SDS011;23314;51.114;6.900;2024-02-21T14:08:02;5.87;;;3.10;;
37451;SDS011;23314;51.114;6.900;2024-02-21T14:10:27;5.07;;;2.83;;
37451;SDS011;23314;51.114;6.900;2024-02-21T14:12:53;5.87;;;2.90;;
37451;SDS011;23314;51.114;6.900;2024-02-21T14:15:18;5.93;;;3.10;;
37451;SDS011;23314;51.114;6.900;2024-02-21T14:17:44;9.07;;;3.03;;
37451;SDS011;23314;51.114;6.900;2024-02-21T14:20:09;6.00;;;2.80;;
37451;SDS011;23314;51.114;6.900;2024-02-21T14:22:35;8.03;;;3.03;;
37451;SDS011;23314;51.114;6.900;2024-02-21T14:25:02;8.93;;;3.27;;
37451;SDS011;23314;51.114;6.900;2024-02-21T14:27:30;8.17;;;3.07;;
37451;SDS011;23314;51.114;6.900;2024-02-21T14:29:56;6.07;;;3.23;;
37451;SDS011;23314;51.114;6.900;2024-02-21T14:32:21;6.40;;;3.17;;
37451;SDS011;23314;51.114;6.900;2024-02-21T14:34:47;6.20;;;2.87;;